| time (UTC) | temp C | wind direction | speed KPH | gust KPH | rain 1hr cm | rain 24hr cm | rain mn cm | humidity % | barometer mb |
| 20260902214119 | 18 | 127 | 6.4 | 16.1 | 0.00 | 0.00 | 0.00 | 62 | 1022.1 |
| 20260902213505 | 18 | 145 | 3.2 | 11.3 | 0.00 | 0.00 | 0.00 | 62 | 1022.0 |
| 20260902211120 | 18 | 177 | 4.8 | 9.7 | 0.00 | 0.00 | 0.00 | 64 | 1021.7 |
| 20260902210506 | 19 | 149 | 3.2 | 11.3 | 0.00 | 0.00 | 0.00 | 62 | 1021.7 |
| 20260902205506 | 18 | 176 | 3.2 | 8.0 | 0.00 | 0.00 | 0.00 | 64 | 1021.7 |
| 20260902204120 | 19 | 127 | 1.6 | 9.7 | 0.00 | 0.00 | 0.00 | 61 | 1021.3 |
| 20260902203505 | 20 | 104 | 4.8 | 11.3 | 0.00 | 0.00 | 0.00 | 60 | 1021.3 |
| 20260902202506 | 20 | 113 | 8.0 | 17.7 | 0.00 | 0.00 | 0.00 | 59 | 1021.2 |
| 20260902201119 | 20 | 133 | 4.8 | 11.3 | 0.00 | 0.00 | 0.00 | 58 | 1021.2 |
| 20260902200506 | 20 | 142 | 6.4 | 11.3 | 0.00 | 0.00 | 0.00 | 60 | 1021.3 |
| 20260902195506 | 20 | 137 | 6.4 | 12.9 | 0.00 | 0.00 | 0.00 | 60 | 1021.3 |
| 20260902194119 | 20 | 138 | 6.4 | 14.5 | 0.00 | 0.00 | 0.00 | 59 | 1021.2 |
| 20260902193506 | 20 | 157 | 1.6 | 6.4 | 0.00 | 0.00 | 0.00 | 60 | 1021.2 |
| 20260902192506 | 19 | 82 | 1.6 | 4.8 | 0.00 | 0.00 | 0.00 | 62 | 1021.1 |
| 20260902191119 | 20 | 82 | 1.6 | 4.8 | 0.00 | 0.00 | 0.00 | 66 | 1020.9 |
| 20260902190505 | 20 | 60 | 1.6 | 3.2 | 0.00 | 0.00 | 0.00 | 61 | 1020.6 |
| 20260902185506 | 20 | 75 | 1.6 | 4.8 | 0.00 | 0.00 | 0.00 | 60 | 1020.5 |
| 20260902184119 | 21 | 360 | 0.0 | 3.2 | 0.00 | 0.00 | 0.00 | 55 | 1020.2 |
| 20260902183506 | 21 | 35 | 1.6 | 4.8 | 0.00 | 0.00 | 0.00 | 56 | 1020.1 |
| 20260902182506 | 21 | 346 | 3.2 | 8.0 | 0.00 | 0.00 | 0.00 | 55 | 1019.9 |
| 20260902181119 | 22 | 355 | 1.6 | 4.8 | 0.00 | 0.00 | 0.00 | 50 | 1019.5 |
| 20260902180506 | 22 | 334 | 1.6 | 8.0 | 0.00 | 0.00 | 0.00 | 47 | 1019.4 |
| 20260902175506 | 23 | 337 | 3.2 | 8.0 | 0.00 | 0.00 | 0.00 | 47 | 1019.2 |
| 20260902174119 | 23 | 336 | 3.2 | 9.7 | 0.00 | 0.00 | 0.00 | 46 | 1019.1 |
| 20260902173505 | 23 | 321 | 1.6 | 8.0 | 0.00 | 0.00 | 0.00 | 45 | 1018.9 |
| 20260902172506 | 23 | 304 | 3.2 | 9.7 | 0.00 | 0.00 | 0.00 | 44 | 1018.7 |
| 20260902171119 | 23 | 287 | 3.2 | 17.7 | 0.00 | 0.00 | 0.00 | 44 | 1018.6 |
| 20260902170506 | 24 | 325 | 1.6 | 6.4 | 0.00 | 0.00 | 0.00 | 44 | 1018.5 |
| 20260902165506 | 24 | 287 | 3.2 | 17.7 | 0.00 | 0.00 | 0.00 | 42 | 1018.3 |
| 20260902164119 | 24 | 288 | 3.2 | 16.1 | 0.00 | 0.00 | 0.00 | 40 | 1018.2 |
| 20260902163506 | 25 | 297 | 3.2 | 14.5 | 0.00 | 0.00 | 0.00 | 39 | 1018.1 |
| 20260902162506 | 26 | 294 | 3.2 | 16.1 | 0.00 | 0.00 | 0.00 | 38 | 1017.8 |
| 20260902161119 | 26 | 256 | 4.8 | 12.9 | 0.00 | 0.00 | 0.00 | 37 | 1017.8 |
| 20260902160505 | 25 | 271 | 4.8 | 22.5 | 0.00 | 0.00 | 0.00 | 37 | 1017.6 |
| 20260902155506 | 26 | 278 | 4.8 | 16.1 | 0.00 | 0.00 | 0.00 | 35 | 1017.5 |
| 20260902154119 | 26 | 283 | 4.8 | 19.3 | 0.00 | 0.00 | 0.00 | 36 | 1017.5 |
| 20260902153506 | 26 | 319 | 4.8 | 19.3 | 0.00 | 0.00 | 0.00 | 39 | 1017.6 |
| 20260902152505 | 26 | 287 | 4.8 | 17.7 | 0.00 | 0.00 | 0.00 | 40 | 1017.6 |
| 20260902151119 | 25 | 279 | 4.8 | 16.1 | 0.00 | 0.00 | 0.00 | 38 | 1017.6 |
| 20260902150506 | 26 | 281 | 4.8 | 12.9 | 0.00 | 0.00 | 0.00 | 37 | 1017.6 |
| 20260902145506 | 26 | 290 | 3.2 | 11.3 | 0.00 | 0.00 | 0.00 | 37 | 1017.5 |
| 20260902144119 | 26 | 289 | 4.8 | 20.9 | 0.00 | 0.00 | 0.00 | 37 | 1017.5 |
| 20260902143505 | 26 | 306 | 3.2 | 12.9 | 0.00 | 0.00 | 0.00 | 38 | 1017.7 |
| 20260902142506 | 26 | 276 | 4.8 | 14.5 | 0.00 | 0.00 | 0.00 | 38 | 1017.7 |
| 20260902141119 | 26 | 311 | 3.2 | 9.7 | 0.00 | 0.00 | 0.00 | 39 | 1017.9 |
| 20260902140506 | 26 | 276 | 6.4 | 17.7 | 0.00 | 0.00 | 0.00 | 36 | 1017.9 |
| 20260902135506 | 26 | 286 | 3.2 | 14.5 | 0.00 | 0.00 | 0.00 | 37 | 1018.0 |
| 20260902134117 | 26 | 288 | 4.8 | 17.7 | 0.00 | 0.00 | 0.00 | 39 | 1017.9 |
| 20260902133506 | 25 | 275 | 4.8 | 16.1 | 0.00 | 0.00 | 0.00 | 33 | 1018.2 |
| 20260902132506 | 26 | 281 | 6.4 | 16.1 | 0.00 | 0.00 | 0.00 | 38 | 1018.2 |
| 20260902131119 | 26 | 284 | 4.8 | 12.9 | 0.00 | 0.00 | 0.00 | 35 | 1018.3 |
| 20260902130506 | 25 | 272 | 6.4 | 19.3 | 0.00 | 0.00 | 0.00 | 32 | 1018.3 |
| 20260902125506 | 25 | 300 | 3.2 | 11.3 | 0.00 | 0.00 | 0.00 | 38 | 1018.4 |
| 20260902124118 | 25 | 293 | 4.8 | 19.3 | 0.00 | 0.00 | 0.00 | 39 | 1018.6 |
| 20260902123506 | 26 | 308 | 4.8 | 14.5 | 0.00 | 0.00 | 0.00 | 38 | 1018.5 |
| 20260902122506 | 26 | 326 | 3.2 | 14.5 | 0.00 | 0.00 | 0.00 | 38 | 1018.5 |
| 20260902121119 | 26 | 340 | 4.8 | 19.3 | 0.00 | 0.00 | 0.00 | 41 | 1018.7 |
| 20260902120505 | 26 | 330 | 4.8 | 20.9 | 0.00 | 0.00 | 0.00 | 43 | 1018.6 |
| 20260902115505 | 25 | 342 | 3.2 | 12.9 | 0.00 | 0.00 | 0.00 | 44 | 1019.0 |
| 20260902114119 | 24 | 266 | 6.4 | 17.7 | 0.00 | 0.00 | 0.00 | 47 | 1019.4 |
| 20260902113506 | 24 | 263 | 6.4 | 17.7 | 0.00 | 0.00 | 0.00 | 49 | 1019.5 |
| 20260902112506 | 23 | 275 | 4.8 | 14.5 | 0.00 | 0.00 | 0.00 | 50 | 1019.8 |
| 20260902111119 | 23 | 300 | 4.8 | 19.3 | 0.00 | 0.00 | 0.00 | 52 | 1019.7 |
| 20260902110506 | 24 | 321 | 3.2 | 12.9 | 0.00 | 0.00 | 0.00 | 54 | 1019.4 |
| 20260902105505 | 22 | 292 | 4.8 | 14.5 | 0.00 | 0.00 | 0.00 | 56 | 1019.8 |
| 20260902104119 | 22 | 323 | 3.2 | 14.5 | 0.00 | 0.00 | 0.00 | 56 | 1020.0 |
| 20260902103506 | 23 | 328 | 3.2 | 12.9 | 0.00 | 0.00 | 0.00 | 55 | 1019.8 |
| 20260902102505 | 22 | 323 | 3.2 | 9.7 | 0.00 | 0.00 | 0.00 | 54 | 1019.9 |
| 20260902101119 | 22 | 288 | 1.6 | 6.4 | 0.00 | 0.00 | 0.00 | 52 | 1020.0 |
| 20260902100506 | 22 | 218 | 3.2 | 9.7 | 0.00 | 0.00 | 0.00 | 53 | 1020.0 |
| 20260902095506 | 21 | 233 | 3.2 | 9.7 | 0.00 | 0.00 | 0.00 | 56 | 1020.2 |
| 20260902094119 | 21 | 271 | 1.6 | 4.8 | 0.00 | 0.00 | 0.00 | 57 | 1020.4 |
| 20260902093506 | 21 | 347 | 1.6 | 4.8 | 0.00 | 0.00 | 0.00 | 58 | 1020.4 |
| 20260902092505 | 21 | 332 | 3.2 | 6.4 | 0.00 | 0.00 | 0.00 | 59 | 1020.6 |
| 20260902091118 | 21 | 335 | 1.6 | 6.4 | 0.00 | 0.00 | 0.00 | 63 | 1020.7 |
| 20260902090506 | 20 | 319 | 1.6 | 6.4 | 0.00 | 0.00 | 0.00 | 59 | 1020.8 |
| 20260902084118 | 20 | 218 | 1.6 | 6.4 | 0.00 | 0.00 | 0.00 | 58 | 1020.8 |
| 20260902083506 | 20 | 359 | 1.6 | 4.8 | 0.00 | 0.00 | 0.00 | 60 | 1020.7 |
| 20260902082506 | 19 | 57 | 3.2 | 6.4 | 0.00 | 0.00 | 0.00 | 64 | 1020.8 |
| 20260902081118 | 19 | 62 | 3.2 | 4.8 | 0.00 | 0.00 | 0.00 | 67 | 1020.9 |
| 20260902080505 | 18 | 43 | 3.2 | 6.4 | 0.00 | 0.00 | 0.00 | 67 | 1021.0 |
| 20260902075506 | 18 | 48 | 1.6 | 6.4 | 0.00 | 0.00 | 0.00 | 69 | 1021.0 |
| 20260902074119 | 18 | 65 | 3.2 | 6.4 | 0.00 | 0.00 | 0.00 | 70 | 1021.1 |
| 20260902073505 | 17 | 72 | 3.2 | 4.8 | 0.00 | 0.00 | 0.00 | 72 | 1021.2 |
| 20260902072506 | 17 | 41 | 1.6 | 4.8 | 0.00 | 0.00 | 0.00 | 73 | 1021.5 |
| 20260902071319 | 16 | 57 | 3.2 | 6.4 | 0.00 | 0.00 | 0.00 | 78 | 1021.8 |
| 20260902070505 | 16 | 30 | 1.6 | 4.8 | 0.00 | 0.00 | 0.00 | 78 | 1022.0 |
| 20260902065505 | 15 | 59 | 1.6 | 6.4 | 0.00 | 0.00 | 0.00 | 81 | 1022.0 |
| 20260902064119 | 15 | 147 | 0.0 | 6.4 | 0.00 | 0.00 | 0.00 | 79 | 1021.9 |
| 20260902062506 | 15 | 110 | 3.2 | 6.4 | 0.00 | 0.00 | 0.00 | 80 | 1022.1 |
| 20260902061119 | 13 | 71 | 1.6 | 4.8 | 0.00 | 0.00 | 0.00 | 86 | 1022.5 |
| 20260902060506 | 13 | 116 | 3.2 | 11.3 | 0.00 | 0.00 | 0.00 | 87 | 1022.6 |
| 20260902055506 | 13 | 139 | 3.2 | 9.7 | 0.00 | 0.00 | 0.00 | 86 | 1022.5 |
| 20260902054119 | 12 | 131 | 3.2 | 8.0 | 0.00 | 0.00 | 0.00 | 88 | 1022.6 |
| 20260902053506 | 12 | 154 | 4.8 | 9.7 | 0.00 | 0.00 | 0.00 | 87 | 1022.5 |
| 20260902052505 | 12 | 229 | 0.0 | 4.8 | 0.00 | 0.00 | 0.00 | 90 | 1022.6 |
| 20260902051119 | 12 | 118 | 0.0 | 3.2 | 0.00 | 0.00 | 0.00 | 91 | 1022.5 |
| 20260902050505 | 12 | 74 | 3.2 | 6.4 | 0.00 | 0.00 | 0.00 | 91 | 1022.6 |
| 20260902045505 | 12 | 88 | 3.2 | 3.2 | 0.00 | 0.00 | 0.00 | 91 | 1022.5 |
| 20260902044119 | 12 | 101 | 1.6 | 3.2 | 0.00 | 0.00 | 0.00 | 91 | 1022.5 |
| 20260902043506 | 12 | 113 | 1.6 | 3.2 | 0.00 | 0.00 | 0.00 | 89 | 1022.3 |
| 20260902042506 | 12 | 149 | 3.2 | 6.4 | 0.00 | 0.00 | 0.00 | 88 | 1022.2 |
| 20260902041119 | 12 | 166 | 1.6 | 4.8 | 0.00 | 0.00 | 0.00 | 90 | 1022.2 |
| 20260902040505 | 12 | 36 | 1.6 | 3.2 | 0.00 | 0.00 | 0.00 | 90 | 1022.2 |
| 20260902035506 | 12 | 126 | 1.6 | 4.8 | 0.00 | 0.00 | 0.00 | 88 | 1022.1 |
| 20260902034506 | 13 | 124 | 1.6 | 8.0 | 0.00 | 0.00 | 0.00 | 88 | 1022.1 |
| 20260902033505 | 13 | 144 | 3.2 | 9.7 | 0.00 | 0.00 | 0.00 | 86 | 1022.0 |
| 20260902032505 | 12 | 186 | 0.0 | 3.2 | 0.00 | 0.00 | 0.00 | 88 | 1022.1 |
| 20260902031505 | 13 | 137 | 1.6 | 6.4 | 0.00 | 0.00 | 0.00 | 87 | 1022.2 |
| 20260902030506 | 13 | 195 | 1.6 | 4.8 | 0.00 | 0.00 | 0.00 | 86 | 1022.1 |
| 20260902025505 | 13 | 112 | 3.2 | 9.7 | 0.00 | 0.00 | 0.00 | 88 | 1022.3 |
| 20260902024506 | 13 | 126 | 3.2 | 6.4 | 0.00 | 0.00 | 0.00 | 87 | 1022.3 |
| 20260902023506 | 13 | 191 | 1.6 | 6.4 | 0.00 | 0.00 | 0.00 | 86 | 1022.2 |
| 20260902022505 | 13 | 172 | 1.6 | 6.4 | 0.00 | 0.00 | 0.00 | 86 | 1022.2 |
| 20260902021505 | 13 | 150 | 1.6 | 4.8 | 0.00 | 0.00 | 0.00 | 88 | 1022.3 |
| 20260902015506 | 13 | 75 | 1.6 | 4.8 | 0.00 | 0.00 | 0.00 | 87 | 1022.2 |
| 20260902014506 | 13 | 83 | 3.2 | 4.8 | 0.00 | 0.00 | 0.00 | 87 | 1022.3 |
| 20260902013505 | 13 | 113 | 1.6 | 4.8 | 0.00 | 0.00 | 0.00 | 86 | 1022.3 |
| 20260902012506 | 13 | 112 | 1.6 | 3.2 | 0.00 | 0.00 | 0.00 | 86 | 1022.2 |
| 20260902011505 | 14 | 139 | 1.6 | 4.8 | 0.00 | 0.00 | 0.00 | 86 | 1022.2 |
| 20260902010506 | 14 | 111 | 1.6 | 3.2 | 0.00 | 0.00 | 0.00 | 85 | 1022.2 |
| 20260902005505 | 14 | 113 | 3.2 | 9.7 | 0.00 | 0.00 | 0.00 | 84 | 1022.1 |
| 20260901221119 | 16 | 113 | 4.8 | 9.7 | 0.00 | 0.00 | 0.00 | 77 | 1022.1 |
| 20260901220506 | 16 | 134 | 4.8 | 11.3 | 0.00 | 0.00 | 0.00 | 78 | 1022.1 |
| 20260901215506 | 15 | 174 | 1.6 | 4.8 | 0.00 | 0.00 | 0.00 | 82 | 1022.5 |